• Join FlightAware (Why Join?)
  • Login
  • US Flag 
03:22PM EDT


 

Airport Tracker/Info


-or-


 

Live Flight TrackerFlight Track Log ✈ TAM3386 ✈ 28-Jul-2013 ✈ SBGR / GRU - SBBE / BEL

Flight Track Log - Related Links

Times and Time Zones

All times are in EDT time to prevent confusion due to time zone crossing. See the TAM3386 flight status page for this flight to view local times or setup timezone preferences in your user account.

Time Position Orientation Groundspeed Altitude Reporting Facility
EDT Latitude Longitude Course Direction KTS MPH feet Rate Location/Type
06:25PM -23.4310 -46.4790 75° East 12 14  Level FlightAware
06:27PM -23.4300 -46.4740 78° East 16 18 120 Level FlightAware
06:27PM -23.4290 -46.4710 70° East 11 13 120 Level FlightAware
06:28PM -23.4290 -46.4690 90° East 11 13 120 Level FlightAware
06:28PM -23.4280 -46.4680 43° Northeast 10 12 120 Level FlightAware
06:29PM -23.4280 -46.4660 90° East 13 15 120 Level FlightAware
06:30PM -23.4270 -46.4640 61° Northeast 15 17 120 Level FlightAware
06:30PM -23.4260 -46.4600 75° East 15 17 120 Level FlightAware
06:33PM -23.1708 -46.4860 355° North  Level Estimated
06:34PM -23.0548 -46.4978 355° North  Level Estimated
06:35PM -22.9388 -46.5096 355° North  Level Estimated
06:36PM -22.8228 -46.5214 355° North  Level Estimated
06:37PM -22.7069 -46.5331 355° North  Level Estimated
06:38PM -22.5909 -46.5448 355° North  Level Estimated
06:39PM -22.4749 -46.5565 355° North  Level Estimated
06:40PM -22.3589 -46.5682 355° North  Level Estimated
06:41PM -22.2429 -46.5799 355° North  Level Estimated
06:44PM -23.1389 -46.4783 355° North  Level Estimated
06:44PM -23.4260 -46.4520 355° North 70 81  Level FlightAware
06:44PM -23.4290 -46.4640 255° West 155 178 4,260 Level FlightAware
06:45PM -23.4330 -46.4780 253° West 177 204 2,500 4,920 Climbing FlightAware
06:45PM -23.4380 -46.4990 255° West 180 207 3,300 1,740 Climbing FlightAware
06:45PM -23.4450 -46.5280 255° West 198 228 4,100 1,680 Climbing FlightAware
06:46PM -23.4500 -46.5470 254° West 201 231 4,700 1,680 Climbing FlightAware
06:46PM -23.4590 -46.5580 228° Southwest 194 223 5,100 1,920 Climbing FlightAware
06:46PM -23.4670 -46.5610 199° South 197 227 5,500 1,800 Climbing FlightAware
06:47PM -23.4900 -46.5460 149° Southeast 199 229 6,300 1,080 Climbing FlightAware
06:47PM -23.5060 -46.5160 120° Southeast 245 282 6,600 780 Climbing FlightAware
06:48PM -23.5120 -46.4770 100° East 283 326 7,100 1,440 Climbing FlightAware
06:48PM -23.5060 -46.4420 79° East 296 341 7,900 1,920 Climbing FlightAware
06:48PM -23.4980 -46.4260 61° Northeast 301 346 8,300 2,520 Climbing FlightAware
06:49PM -23.4800 -46.3970 56° Northeast 297 342 9,400 1,800 Climbing FlightAware
06:49PM -23.4560 -46.3550 58° Northeast 308 354 10,000 660 Climbing FlightAware
06:50PM -23.4230 -46.3070 53° Northeast 322 371 10,200 420 Climbing FlightAware
06:50PM -23.4040 -46.2980 23° Northeast 335 386 10,400 1,080 Climbing FlightAware
06:51PM -23.3260 -46.2660 21° North 370 426 11,400 960 Climbing FlightAware
06:52PM -23.2570 -46.2390 20° North 398 458 12,000 1,440 Climbing FlightAware
06:52PM -23.1740 -46.2050 21° North 403 464 13,600 1,500 Climbing FlightAware
06:53PM -23.1070 -46.1790 20° North 420 483 14,200 1,200 Climbing FlightAware
06:53PM -23.0800 -46.1750 North 419 482 14,600 2,340 Climbing FlightAware
06:54PM -23.0400 -46.1810 352° North 407 468 15,800 2,520 Climbing FlightAware
06:54PM -22.9730 -46.1930 351° North 388 447 17,300 1,680 Climbing FlightAware
06:55PM -22.8970 -46.2060 351° North 403 464 18,000 1,020 Climbing FlightAware
06:56PM -22.8100 -46.2210 351° North 420 483 18,800 1,020 Climbing FlightAware
06:57PM -22.7210 -46.2360 351° North 432 497 19,600 1,320 Climbing FlightAware
06:57PM -22.6400 -46.2500 351° North 430 495 20,800 1,740 Climbing FlightAware
06:58PM -22.5670 -46.2630 351° North 424 488 21,900 1,500 Climbing FlightAware
06:58PM -22.5050 -46.2730 352° North 427 491 22,600 1,680 Climbing FlightAware
06:59PM -22.4230 -46.2870 351° North 419 482 24,000 1,560 Climbing FlightAware
07:00PM -22.3440 -46.3010 351° North 423 487 24,800 780 Climbing FlightAware
07:00PM -22.2630 -46.3150 351° North 442 509 25,100 660 Climbing FlightAware
07:01PM -22.1620 -46.3320 351° North 452 520 25,800 960 Climbing FlightAware
07:02PM -22.0850 -46.3450 351° North 453 521 26,500 960 Climbing FlightAware
07:02PM -22.0160 -46.3580 350° North 457 526 27,000 780 Climbing FlightAware
07:03PM -21.9030 -46.3800 350° North 465 535 27,700 720 Climbing FlightAware
07:04PM -21.7640 -46.4020 352° North 477 549 28,400 720 Climbing FlightAware
07:05PM -21.6660 -46.4180 351° North 481 554 29,000 780 Climbing FlightAware
07:06PM -21.5660 -46.4340 352° North 474 545 29,600 1,020 Climbing FlightAware
07:06PM -21.4770 -46.4490 351° North 468 539 30,500 1,080 Climbing FlightAware
07:07PM -21.4010 -46.4610 352° North 474 545 31,000 720 Climbing FlightAware
07:08PM -21.3040 -46.4770 351° North 471 542 31,500 660 Climbing FlightAware
07:08PM -21.2270 -46.4900 351° North 471 542 31,900 900 Climbing FlightAware
07:09PM -21.1290 -46.5060 351° North 473 544 32,700 1,080 Climbing FlightAware
07:10PM -21.0610 -46.5170 351° North 468 539 33,300 840 Climbing FlightAware
07:10PM -20.9640 -46.5330 351° North 467 537 33,800 660 Climbing FlightAware
07:11PM -20.8750 -46.5470 352° North 466 536 34,300 660 Climbing FlightAware
07:12PM -20.7820 -46.5620 351° North 465 535 34,800 420 Climbing FlightAware
07:13PM -20.6840 -46.5780 351° North 467 537 35,000 120 Climbing FlightAware
07:13PM -20.6060 -46.5910 351° North 466 536 35,000  Level FlightAware
07:14PM -20.5070 -46.6070 351° North 465 535 35,000  Level FlightAware
07:14PM -20.4360 -46.6190 351° North 464 534 35,000  Level FlightAware
07:15PM -20.3520 -46.6350 350° North 463 533 35,000  Level FlightAware
07:16PM -20.2580 -46.6520 350° North 464 534 35,000  Level FlightAware
07:16PM -20.1940 -46.6640 350° North 463 533 35,000  Level FlightAware
07:17PM -20.0940 -46.6820 350° North 463 533 35,000  Level FlightAware
07:18PM -20.0040 -46.6980 351° North 464 534 35,000  Level FlightAware
07:19PM -19.9150 -46.7150 350° North 464 534 35,000  Level FlightAware
07:19PM -19.8360 -46.7290 351° North 465 535 35,000  Level FlightAware
07:20PM -19.7390 -46.7460 351° North 465 535 35,000  Level FlightAware
07:21PM -19.6430 -46.7640 350° North 466 536 35,000  Level FlightAware
07:21PM -19.5760 -46.7760 350° North 467 537 35,000  Level FlightAware
07:22PM -19.4810 -46.7930 350° North 468 539 35,000  Level FlightAware
07:23PM -19.3930 -46.8090 350° North 468 539 35,000  Level FlightAware
07:23PM -19.3160 -46.8230 350° North 469 540 35,000  Level FlightAware
07:24PM -19.2290 -46.8380 351° North 469 540 35,000  Level FlightAware
07:25PM -19.1350 -46.8530 351° North 469 540 35,000  Level FlightAware
07:25PM -19.0510 -46.8660 352° North 468 539 35,000  Level FlightAware
07:26PM -18.9570 -46.8810 351° North 467 537 35,000  Level FlightAware
07:27PM -18.8690 -46.8950 351° North 467 537 35,000  Level FlightAware
07:27PM -18.7770 -46.9090 352° North 467 537 35,000  Level FlightAware
07:28PM -18.6920 -46.9210 352° North 469 540 35,000  Level FlightAware
07:29PM -18.6240 -46.9300 353° North 469 540 35,000  Level FlightAware
07:29PM -18.5380 -46.9420 352° North 470 541 35,000  Level FlightAware
07:30PM -18.4500 -46.9550 352° North 470 541 35,000  Level FlightAware
07:31PM -18.3840 -46.9650 352° North 470 541 35,000  Level FlightAware
07:32PM -18.2260 -46.9840 353° North 478 550 35,000  Level FlightAware
07:32PM -18.1210 -46.9970 353° North 477 549 35,000  Level FlightAware
07:33PM -18.0240 -47.0100 353° North 474 545 35,000  Level FlightAware
07:34PM -17.9380 -47.0210 353° North 471 542 35,000  Level FlightAware
07:35PM -17.8430 -47.0340 353° North 468 539 35,000  Level FlightAware
07:35PM -17.7570 -47.0450 353° North 468 539 35,000  Level FlightAware
07:36PM -17.6630 -47.0580 352° North 468 539 35,000  Level FlightAware
07:37PM -17.5750 -47.0690 353° North 469 540 35,000  Level FlightAware
07:37PM -17.4790 -47.0820 353° North 469 540 35,000  Level FlightAware
07:38PM -17.3950 -47.0930 353° North 469 540 35,000  Level FlightAware
07:39PM -17.2930 -47.1080 352° North 470 541 35,000  Level FlightAware
07:40PM -17.1760 -47.1250 352° North 470 541 35,000  Level FlightAware
07:40PM -17.1070 -47.1350 352° North 470 541 35,000  Level FlightAware
07:41PM -17.0280 -47.1480 351° North 471 542 35,000  Level FlightAware
07:42PM -16.9620 -47.1590 351° North 471 542 35,000  Level FlightAware
07:42PM -16.8530 -47.1740 352° North 471 542 35,000  Level FlightAware
07:43PM -16.7780 -47.1870 351° North 471 542 35,000  Level FlightAware
07:44PM -16.6900 -47.2010 351° North 471 542 35,000  Level FlightAware
07:44PM -16.6220 -47.2120 351° North 471 542 35,000  Level FlightAware
07:45PM -16.4910 -47.2300 352° North 476 548 35,000  Level FlightAware
07:46PM -16.4050 -47.2410 353° North 476 548 35,000 60 Level FlightAware
07:46PM -16.3030 -47.2540 353° North 477 549 35,100 300 Climbing FlightAware
07:47PM -16.2130 -47.2720 349° North 477 549 35,500 420 Climbing FlightAware
07:48PM -16.1320 -47.2880 349° North 478 550 35,700 360 Climbing FlightAware
07:48PM -16.0440 -47.3050 349° North 481 554 36,000 180 Climbing FlightAware
07:49PM -15.9560 -47.3210 350° North 481 554 36,000  Level FlightAware
07:50PM -15.8790 -47.3360 349° North 481 554 36,000  Level FlightAware
07:50PM -15.7800 -47.3540 350° North 480 552 36,000  Level FlightAware
07:51PM -15.6940 -47.3700 350° North 480 552 36,000  Level FlightAware
07:52PM -15.6180 -47.3850 349° North 479 551 36,000  Level FlightAware
07:52PM -15.5190 -47.4030 350° North 480 552 36,000  Level FlightAware
07:53PM -15.4420 -47.4180 349° North 480 552 36,000  Level FlightAware
07:54PM -15.3440 -47.4360 350° North 479 551 36,000  Level FlightAware
07:55PM -15.2450 -47.4540 350° North 478 550 36,000  Level FlightAware
07:55PM -15.1650 -47.4690 350° North 477 549 36,000  Level FlightAware
07:56PM -15.0650 -47.4880 350° North 477 549 36,000  Level FlightAware
07:57PM -14.9770 -47.5040 350° North 477 549 36,000  Level FlightAware
07:57PM -14.8630 -47.5250 350° North 475 547 36,000  Level FlightAware
07:58PM -14.7790 -47.5410 350° North 474 545 36,000  Level FlightAware
07:59PM -14.6810 -47.5590 350° North 473 544 36,000  Level FlightAware
07:59PM -14.5940 -47.5750 350° North 472 543 36,000  Level FlightAware
08:00PM -14.5140 -47.5900 350° North 472 543 36,000  Level FlightAware
08:01PM -14.4120 -47.6090 350° North 473 544 36,000  Level FlightAware
08:02PM -14.2540 -47.6390 350° North 475 547 36,000  Level FlightAware
08:03PM -14.1880 -47.6520 349° North 475 547 36,000  Level FlightAware
08:04PM -14.1030 -47.6690 349° North 475 547 36,000  Level FlightAware
08:04PM -14.0370 -47.6820 349° North 475 547 36,000  Level FlightAware
08:05PM -13.9490 -47.7000 349° North 475 547 36,000  Level FlightAware
08:06PM -13.8830 -47.7130 349° North 475 547 36,000  Level FlightAware
08:06PM -13.7930 -47.7310 349° North 475 547 36,000  Level FlightAware
08:07PM -13.7270 -47.7440 349° North 475 547 36,000  Level FlightAware
08:08PM -13.6380 -47.7620 349° North 475 547 36,000  Level FlightAware
08:08PM -13.5700 -47.7760 349° North 475 547 36,000  Level FlightAware
08:09PM -13.4800 -47.7940 349° North 475 547 36,000  Level FlightAware
08:10PM -13.4120 -47.8070 349° North 475 547 36,000  Level FlightAware
08:11PM -13.2760 -47.8340 349° North 475 547 36,000  Level FlightAware
08:12PM -13.2100 -47.8480 348° North 475 547 36,000  Level FlightAware
08:14PM -13.0111 -47.8589 357° North  Level Estimated
08:15PM -12.9005 -47.8650 357° North  Level Estimated
08:16PM -12.7900 -47.8710 357° North  Level Estimated
08:17PM -12.6795 -47.8771 357° North  Level Estimated
08:18PM -12.5690 -47.8831 357° North  Level Estimated
08:18PM -12.2330 -48.0080 357° North 478 550 36,000  Level FlightAware
08:18PM -12.1400 -48.0250 350° North 479 551 36,000  Level FlightAware
08:19PM -12.0530 -48.0410 350° North 479 551 36,000  Level FlightAware
08:20PM -11.9320 -48.0640 349° North 479 551 36,000  Level FlightAware
08:21PM -11.8370 -48.0800 351° North 479 551 36,000  Level FlightAware
08:21PM -11.7680 -48.0920 350° North 479 551 36,000  Level FlightAware
08:22PM -11.6530 -48.1130 350° North 479 551 36,000  Level FlightAware
08:23PM -11.5770 -48.1270 350° North 479 551 36,000  Level FlightAware
08:23PM -11.4530 -48.1490 350° North 479 551 36,000  Level FlightAware
08:25PM -11.3090 -48.1750 350° North 479 551 36,000  Level FlightAware
08:25PM -11.2280 -48.1900 350° North 479 551 36,000  Level FlightAware
08:26PM -11.1250 -48.2080 350° North 480 552 36,000  Level FlightAware
08:27PM -10.9480 -48.2400 350° North 480 552 36,000  Level FlightAware
08:28PM -10.8630 -48.2560 350° North 480 552 36,000  Level FlightAware
08:29PM -10.9090 -48.2470 169° South 479 551 36,000  Level FlightAware
08:30PM -10.6700 -48.2900 350° North 479 551 36,000  Level FlightAware
08:30PM -10.7160 -48.2820 170° South 478 550 36,000  Level FlightAware
08:31PM -10.6420 -48.2960 349° North 478 550 36,000  Level FlightAware
08:32PM -10.5540 -48.3140 349° North 478 550 36,000  Level FlightAware
08:32PM -10.4870 -48.3270 349° North 478 550 36,000  Level FlightAware
08:33PM -10.3990 -48.3440 349° North 478 550 36,000  Level FlightAware
08:34PM -10.2880 -48.3660 349° North 478 550 36,000  Level FlightAware
08:35PM -10.2220 -48.3790 349° North 478 550 36,000  Level FlightAware
08:35PM -10.1550 -48.3930 348° North 478 550 36,000  Level FlightAware
08:36PM -10.0670 -48.4100 349° North 478 550 36,000  Level FlightAware
08:37PM -9.9780 -48.4280 349° North 478 550 36,000  Level FlightAware
08:37PM -9.9120 -48.4410 349° North 478 550 36,000  Level FlightAware
08:39PM -9.3740 -48.3710 356° North 477 549 36,000  Level FlightAware
08:40PM -9.3030 -48.3720 359° North 477 549 36,000  Level FlightAware
08:41PM -9.1650 -48.3740 359° North 478 550 36,000  Level FlightAware
08:42PM -9.0400 -48.3760 359° North 478 550 36,000  Level FlightAware
08:42PM -8.9520 -48.3770 359° North 478 550 36,000  Level FlightAware
08:43PM -8.8430 -48.3790 359° North 477 549 36,000  Level FlightAware
08:44PM -8.7430 -48.3800 359° North 477 549 36,000  Level FlightAware
08:45PM -8.6530 -48.3810 359° North 478 550 36,000  Level FlightAware
08:45PM -8.5910 -48.3820 359° North 478 550 36,000  Level FlightAware
08:46PM -8.5000 -48.3840 359° North 478 550 36,000  Level FlightAware
08:47PM -8.4080 -48.3850 359° North 478 550 36,000  Level FlightAware
08:47PM -8.3410 -48.3870 358° North 478 550 36,000  Level FlightAware
08:48PM -8.2710 -48.3880 359° North 478 550 36,000  Level FlightAware
08:49PM -8.2020 -48.3890 359° North 478 550 36,000  Level FlightAware
08:49PM -8.1110 -48.3910 359° North 478 550 36,000  Level FlightAware
08:50PM -8.0420 -48.3920 359° North 478 550 36,000  Level FlightAware
08:51PM -7.9760 -48.3930 359° North 478 550 36,000  Level FlightAware
08:51PM -7.8860 -48.3950 359° North 478 550 36,000  Level FlightAware
08:52PM -7.8180 -48.3960 359° North 478 550 36,000  Level FlightAware
08:53PM -7.7280 -48.3970 359° North 478 550 36,000  Level FlightAware
08:53PM -7.6600 -48.3980 359° North 478 550 36,000  Level FlightAware
08:54PM -7.5700 -48.4000 359° North 478 550 36,000 -720 Level FlightAware
08:57PM -7.3229 -48.4031 359° North  Level Estimated
08:58PM -7.2122 -48.4045 359° North  Level Estimated
08:59PM -7.1015 -48.4058 359° North  Level Estimated
09:00PM -6.9908 -48.4072 359° North  Level Estimated
09:01PM -6.8802 -48.4086 359° North  Level Estimated
09:02PM -6.7695 -48.4100 359° North  Level Estimated
09:03PM -6.6588 -48.4113 359° North  Level Estimated
09:04PM -6.5482 -48.4127 359° North  Level Estimated
09:05PM -6.4375 -48.4141 359° North  Level Estimated
09:06PM -6.3268 -48.4154 359° North  Level Estimated
09:07PM -6.2161 -48.4168 359° North  Level Estimated
09:08PM -6.1055 -48.4182 359° North  Level Estimated
09:09PM -5.9948 -48.4195 359° North  Level Estimated
09:10PM -5.8841 -48.4209 359° North  Level Estimated
09:11PM -5.7735 -48.4223 359° North  Level Estimated
09:12PM -5.6628 -48.4236 359° North  Level Estimated
09:13PM -5.5521 -48.4250 359° North  Level Estimated
09:14PM -5.4415 -48.4264 359° North  Level Estimated
09:15PM -5.3308 -48.4278 359° North  Level Estimated
09:16PM -5.2201 -48.4291 359° North  Level Estimated
09:17PM -5.1094 -48.4305 359° North  Level Estimated
09:18PM -4.9988 -48.4319 359° North  Level Estimated
09:19PM -4.8881 -48.4332 359° North  Level Estimated
09:20PM -4.7774 -48.4346 359° North  Level Estimated
09:21PM -4.6668 -48.4359 359° North  Level Estimated
09:22PM -4.5561 -48.4373 359° North  Level Estimated
09:23PM -4.4454 -48.4386 359° North  Level Estimated
09:24PM -4.3348 -48.4400 359° North  Level Estimated
09:25PM -4.2241 -48.4414 359° North  Level Estimated
09:26PM -4.1134 -48.4427 359° North  Level Estimated
09:27PM -4.0027 -48.4441 359° North  Level Estimated
09:28PM -3.8921 -48.4454 359° North  Level Estimated
09:29PM -3.7814 -48.4468 359° North  Level Estimated
09:30PM -3.6707 -48.4482 359° North  Level Estimated
09:31PM -3.5601 -48.4495 359° North  Level Estimated
09:32PM -3.4494 -48.4509 359° North  Level Estimated
09:33PM -3.3387 -48.4523 359° North  Level Estimated
09:34PM -3.2281 -48.4536 359° North  Level Estimated
09:35PM -3.1174 -48.4550 359° North  Level Estimated
09:36PM -3.0067 -48.4563 359° North  Level Estimated
09:37PM -2.8960 -48.4577 359° North  Level Estimated
09:38PM -2.7854 -48.4590 359° North  Level Estimated
09:39PM -2.6747 -48.4604 359° North  Level Estimated
09:40PM -2.5640 -48.4618 359° North  Level Estimated
09:41PM -2.4534 -48.4631 359° North  Level Estimated
09:42PM -2.3427 -48.4645 359° North  Level Estimated
09:43PM -2.2320 -48.4659 359° North  Level Estimated
09:44PM -2.1214 -48.4672 359° North  Level Estimated
09:44PM -1.4850 -48.5830 359° North 198 228 1,900  Level FlightAware
09:45PM -2.0107 -48.4686 359° North  Level Estimated
09:45PM -1.4700 -48.5670 47° Northeast 172 198 1,900  Level FlightAware
09:45PM -1.4560 -48.5540 43° Northeast 150 173 1,800 -540 Descending FlightAware
09:46PM -1.4410 -48.5390 45° Northeast 140 161 1,400 -840 Descending FlightAware
09:46PM -1.4350 -48.5320 49° Northeast 139 160 1,200 -720 Descending FlightAware
09:46PM -1.4250 -48.5230 42° Northeast 140 161 1,000 -660 Descending FlightAware
09:47PM -1.4130 -48.5100 47° Northeast 141 162 700 -840 Descending FlightAware
09:47PM -1.3990 -48.4960 45° Northeast 144 166 300 -840 Descending FlightAware
09:48PM -1.3810 -48.4780 45° Northeast 120 138 -480 Descending FlightAware